createdAt,value
2023-05-13T00:02:08.469Z,99883.48
2023-05-13T00:04:35.277Z,99883.23
2023-05-13T00:07:02.086Z,99886.62
2023-05-13T00:09:28.824Z,99888.30
2023-05-13T00:11:55.641Z,99890.30
2023-05-13T00:14:22.368Z,99889.23
2023-05-13T00:16:49.303Z,99888.50
2023-05-13T00:19:16.004Z,99887.46
2023-05-13T00:21:42.730Z,99886.55
2023-05-13T00:24:09.503Z,99884.63
2023-05-13T00:26:36.238Z,99883.23
2023-05-13T00:29:02.958Z,99885.55
2023-05-13T00:31:29.732Z,99887.88
2023-05-13T00:33:56.636Z,99890.91
2023-05-13T00:36:24.163Z,99891.16
2023-05-13T00:38:50.892Z,99892.26
2023-05-13T00:41:17.599Z,99894.88
2023-05-13T00:43:44.255Z,99890.46
2023-05-13T00:46:11.043Z,99895.64
2023-05-13T00:48:38.317Z,99895.73
2023-05-13T00:51:05.301Z,99903.74
2023-05-13T00:53:33.233Z,99898.90
2023-05-13T00:56:00.362Z,99897.34
2023-05-13T00:58:27.027Z,99895.47
2023-05-13T01:00:54.098Z,99897.99
2023-05-13T01:03:58.444Z,99896.42
2023-05-13T01:07:01.736Z,99893.70
2023-05-13T01:09:53.313Z,99892.88
2023-05-13T01:12:28.100Z,99894.81
2023-05-13T01:15:05.658Z,99894.60
2023-05-13T01:17:53.539Z,99890.66
2023-05-13T01:20:21.823Z,99895.19
2023-05-13T01:22:48.936Z,99895.05
2023-05-13T01:25:16.333Z,99891.88
2023-05-13T01:27:43.337Z,99891.77
2023-05-13T01:30:11.362Z,99891.04
2023-05-13T01:32:38.238Z,99891.71
2023-05-13T01:35:05.546Z,99892.91
2023-05-13T01:37:32.803Z,99893.86
2023-05-13T01:39:59.740Z,99890.69
2023-05-13T01:42:29.208Z,99891.21
2023-05-13T01:44:56.115Z,99893.27
2023-05-13T01:47:22.940Z,99892.09
2023-05-13T01:49:50.222Z,99889.34
2023-05-13T01:52:17.048Z,99891.11
2023-05-13T01:54:44.135Z,99888.10
2023-05-13T01:57:12.926Z,99886.33
2023-05-13T01:59:39.634Z,99887.07
2023-05-13T02:02:06.579Z,99887.61
2023-05-13T02:04:33.369Z,99887.02
2023-05-13T02:07:00.468Z,99883.65
2023-05-13T02:09:29.415Z,99888.05
2023-05-13T02:11:56.199Z,99885.62
2023-05-13T02:14:22.890Z,99887.23
2023-05-13T02:16:49.659Z,99889.34
2023-05-13T02:19:17.052Z,99891.30
2023-05-13T02:21:43.796Z,99894.14
2023-05-13T02:24:10.763Z,99896.78
2023-05-13T02:26:38.284Z,99899.51
2023-05-13T02:29:05.178Z,99899.58
2023-05-13T02:31:32.423Z,99902.45
2023-05-13T02:33:59.579Z,99901.09
2023-05-13T02:36:26.438Z,99902.61
2023-05-13T02:38:53.355Z,99901.20
2023-05-13T02:41:20.119Z,99902.56
2023-05-13T02:43:47.203Z,99903.38
2023-05-13T02:46:15.361Z,99903.34
2023-05-13T02:48:43.914Z,99905.86
2023-05-13T02:51:10.598Z,99905.51
2023-05-13T02:53:38.229Z,99907.27
2023-05-13T02:56:07.108Z,99910.91
2023-05-13T02:58:34.979Z,99907.73
2023-05-13T03:01:01.944Z,99910.78
2023-05-13T03:03:29.440Z,99913.77
2023-05-13T03:05:56.483Z,99912.67
2023-05-13T03:08:23.423Z,99907.77
2023-05-13T03:10:51.282Z,99907.38
2023-05-13T03:13:18.037Z,99906.41
2023-05-13T03:15:44.814Z,99905.67
2023-05-13T03:18:11.924Z,99906.42
2023-05-13T03:20:38.747Z,99903.77
2023-05-13T03:23:05.712Z,99904.23
2023-05-13T03:25:32.572Z,99904.90
2023-05-13T03:27:59.368Z,99901.63
2023-05-13T03:30:28.824Z,99902.94
2023-05-13T03:33:03.278Z,99901.26
2023-05-13T03:35:30.250Z,99900.06
2023-05-13T03:37:57.446Z,99902.95
2023-05-13T03:40:24.502Z,99903.65
2023-05-13T03:42:51.581Z,99904.40
2023-05-13T03:45:19.000Z,99906.40
2023-05-13T03:47:47.812Z,99909.30
2023-05-13T03:50:15.724Z,99907.97
2023-05-13T03:52:45.522Z,99909.15
2023-05-13T03:55:15.186Z,99907.21
2023-05-13T03:57:44.823Z,99909.87
2023-05-13T04:00:12.323Z,99906.86
2023-05-13T04:02:43.018Z,99909.84
2023-05-13T04:05:10.669Z,99907.17
2023-05-13T04:07:37.361Z,99906.40
2023-05-13T04:10:04.494Z,99906.44
2023-05-13T04:12:33.352Z,99904.35
2023-05-13T04:15:00.760Z,99907.88
2023-05-13T04:17:27.822Z,99907.73
2023-05-13T04:19:54.976Z,99907.95
2023-05-13T04:22:21.878Z,99909.59
2023-05-13T04:24:52.115Z,99908.25
2023-05-13T04:27:18.910Z,99907.89
2023-05-13T04:29:46.112Z,99907.69
2023-05-13T04:32:16.176Z,99908.13
2023-05-13T04:34:43.496Z,99905.48
2023-05-13T04:37:10.202Z,99905.04
2023-05-13T04:39:36.956Z,99908.30
2023-05-13T04:42:03.829Z,99904.80
2023-05-13T04:44:33.209Z,99909.91
2023-05-13T04:46:59.923Z,99910.89
2023-05-13T04:49:26.723Z,99911.15
2023-05-13T04:51:53.898Z,99907.52
2023-05-13T04:54:21.266Z,99910.11
2023-05-13T04:56:48.309Z,99910.89
2023-05-13T04:59:15.140Z,99907.77
2023-05-13T05:01:42.082Z,99909.38
2023-05-13T05:04:09.119Z,99908.75
2023-05-13T05:06:36.409Z,99907.29
2023-05-13T05:09:03.753Z,99909.42
2023-05-13T05:11:30.607Z,99909.02
2023-05-13T05:13:57.421Z,99907.08
2023-05-13T05:16:24.192Z,99909.56
2023-05-13T05:18:51.173Z,99910.30
2023-05-13T05:21:18.795Z,99911.24
2023-05-13T05:23:45.947Z,99915.64
2023-05-13T05:26:12.853Z,99919.27
2023-05-13T05:28:42.465Z,99915.23
2023-05-13T05:31:09.853Z,99917.17
2023-05-13T05:33:37.082Z,99918.88
2023-05-13T05:36:05.905Z,99917.09
2023-05-13T05:38:32.901Z,99914.23
2023-05-13T05:41:00.644Z,99913.79
2023-05-13T05:43:27.709Z,99915.81
2023-05-13T05:45:54.549Z,99915.00
2023-05-13T05:48:22.093Z,99913.36
2023-05-13T05:50:49.384Z,99912.65
2023-05-13T05:53:22.688Z,99911.17
2023-05-13T05:55:51.079Z,99909.25
2023-05-13T05:58:19.085Z,99907.67
2023-05-13T06:00:45.825Z,99912.13
2023-05-13T06:03:12.798Z,99910.71
2023-05-13T06:05:39.951Z,99912.69
2023-05-13T06:08:06.781Z,99913.41
2023-05-13T06:10:33.623Z,99910.96
2023-05-13T06:13:00.375Z,99907.55
2023-05-13T06:15:28.733Z,99909.80
2023-05-13T06:17:55.553Z,99908.17
2023-05-13T06:20:22.817Z,99905.99
2023-05-13T06:22:50.798Z,99911.61
2023-05-13T06:25:18.097Z,99910.38
2023-05-13T06:27:44.835Z,99916.72
2023-05-13T06:30:11.660Z,99914.73
2023-05-13T06:32:53.438Z,99917.84
2023-05-13T06:35:24.360Z,99915.73
2023-05-13T06:37:51.183Z,99913.34
2023-05-13T06:40:17.978Z,99914.46
2023-05-13T06:42:45.248Z,99912.23
2023-05-13T06:45:23.370Z,99910.13
2023-05-13T06:47:51.429Z,99911.02
2023-05-13T06:50:18.632Z,99912.65
2023-05-13T06:52:46.595Z,99907.86
2023-05-13T06:55:13.326Z,99910.77
2023-05-13T06:57:43.472Z,99908.86
2023-05-13T07:00:11.055Z,99910.76
2023-05-13T07:02:37.879Z,99907.89
2023-05-13T07:05:05.276Z,99910.46
2023-05-13T07:07:32.059Z,99913.09
2023-05-13T07:09:59.483Z,99912.34
2023-05-13T07:12:26.248Z,99910.77
2023-05-13T07:14:53.013Z,99912.27
2023-05-13T07:17:20.062Z,99910.89
2023-05-13T07:19:47.472Z,99910.60
2023-05-13T07:22:14.213Z,99913.67
2023-05-13T07:24:41.826Z,99914.66
2023-05-13T07:27:08.590Z,99916.33
2023-05-13T07:29:35.417Z,99910.98
2023-05-13T07:32:06.043Z,99912.21
2023-05-13T07:34:32.797Z,99910.15
2023-05-13T07:36:59.769Z,99911.55
2023-05-13T07:39:26.974Z,99909.79
2023-05-13T07:41:54.226Z,99913.34
2023-05-13T07:44:21.296Z,99910.00
2023-05-13T07:46:48.835Z,99912.52
2023-05-13T07:49:15.575Z,99908.06
2023-05-13T07:51:42.345Z,99906.73
2023-05-13T07:54:09.341Z,99903.90
2023-05-13T07:56:38.117Z,99904.19
2023-05-13T07:59:05.083Z,99904.16
2023-05-13T08:01:31.926Z,99896.28
2023-05-13T08:03:58.853Z,99907.51
2023-05-13T08:06:26.063Z,99905.61
2023-05-13T08:08:52.890Z,99905.08
2023-05-13T08:11:19.601Z,99903.45
2023-05-13T08:13:46.358Z,99908.23
2023-05-13T08:16:13.290Z,99914.27
2023-05-13T08:18:40.125Z,99906.38
2023-05-13T08:21:06.996Z,99914.03
2023-05-13T08:23:44.844Z,99908.97
2023-05-13T08:26:12.660Z,99907.48
2023-05-13T08:28:39.714Z,99904.05
2023-05-13T08:31:06.519Z,99896.00
2023-05-13T08:33:33.522Z,99893.59
2023-05-13T08:36:00.629Z,99892.98
2023-05-13T08:38:27.293Z,99892.55
2023-05-13T08:40:54.125Z,99892.73
2023-05-13T08:43:20.906Z,99897.15
2023-05-13T08:45:48.001Z,99894.91
2023-05-13T08:48:15.555Z,99901.87
2023-05-13T08:50:42.888Z,99896.33
2023-05-13T08:53:11.579Z,99900.44
2023-05-13T08:55:41.464Z,99900.52
2023-05-13T08:58:08.217Z,99896.08
2023-05-13T09:00:35.055Z,99902.04
2023-05-13T09:03:02.027Z,99905.66
2023-05-13T09:05:29.094Z,99903.42
2023-05-13T09:07:55.881Z,99900.17
2023-05-13T09:10:22.628Z,99888.59
2023-05-13T09:12:50.049Z,99884.66
2023-05-13T09:15:21.305Z,99878.67
2023-05-13T09:17:55.790Z,99874.54
2023-05-13T09:20:22.815Z,99868.13
2023-05-13T09:22:50.927Z,99871.80
2023-05-13T09:25:18.994Z,99869.04
2023-05-13T09:27:51.442Z,99868.41
2023-05-13T09:30:20.446Z,99870.55
2023-05-13T09:33:08.824Z,99868.73
2023-05-13T09:35:53.954Z,99875.48
2023-05-13T09:38:22.436Z,99870.17
2023-05-13T09:40:56.772Z,99871.83
2023-05-13T09:43:24.684Z,99858.30
2023-05-13T09:45:55.250Z,99853.98
2023-05-13T09:48:23.485Z,99856.89
2023-05-13T09:50:50.557Z,99855.68
2023-05-13T09:53:17.378Z,99859.46
2023-05-13T09:55:48.234Z,99856.82
2023-05-13T09:58:15.027Z,99852.59
2023-05-13T10:00:42.365Z,99849.68
2023-05-13T10:03:09.925Z,99845.52
2023-05-13T10:05:36.810Z,99838.13
2023-05-13T10:08:03.630Z,99837.46
2023-05-13T10:10:31.579Z,99846.46
2023-05-13T10:12:59.853Z,99841.56
2023-05-13T10:15:26.762Z,99838.09
2023-05-13T10:17:53.621Z,99839.33
2023-05-13T10:20:20.685Z,99837.41
2023-05-13T10:22:47.614Z,99844.94
2023-05-13T10:25:14.335Z,99832.63
2023-05-13T10:27:41.058Z,99825.78
2023-05-13T10:30:10.369Z,99832.44
2023-05-13T10:32:38.980Z,99831.79
2023-05-13T10:35:12.239Z,99825.47
2023-05-13T10:37:54.919Z,99829.77
2023-05-13T10:40:46.572Z,99819.17
2023-05-13T10:43:23.367Z,99828.02
2023-05-13T10:46:06.675Z,99831.14
2023-05-13T10:48:41.588Z,99832.74
2023-05-13T10:51:08.514Z,99825.17
2023-05-13T10:53:46.858Z,99823.33
2023-05-13T10:56:13.683Z,99818.57
2023-05-13T10:58:40.369Z,99811.57
2023-05-13T11:01:30.804Z,99808.73
2023-05-13T11:03:59.350Z,99809.91
2023-05-13T11:06:30.690Z,99812.00
2023-05-13T11:08:57.556Z,99813.57
2023-05-13T11:11:33.246Z,99816.91
2023-05-13T11:14:00.039Z,99820.55
2023-05-13T11:16:26.823Z,99821.92
2023-05-13T11:18:53.762Z,99818.70
2023-05-13T11:21:33.994Z,99818.64
2023-05-13T11:24:04.287Z,99817.86
2023-05-13T11:26:47.975Z,99815.81
2023-05-13T11:29:15.025Z,99810.07
2023-05-13T11:31:43.588Z,99811.61
2023-05-13T11:34:11.319Z,99814.14
2023-05-13T11:37:08.521Z,99804.80
2023-05-13T11:39:35.359Z,99798.67
2023-05-13T11:42:02.350Z,99793.28
2023-05-13T11:44:29.166Z,99803.46
2023-05-13T11:47:01.185Z,99793.80
2023-05-13T11:49:37.517Z,99795.51
2023-05-13T11:52:05.186Z,99793.83
2023-05-13T11:54:32.018Z,99804.33
2023-05-13T11:56:58.803Z,99786.45
2023-05-13T11:59:26.687Z,99783.79
2023-05-13T12:02:01.234Z,99784.88
2023-05-13T12:04:29.993Z,99784.51
2023-05-13T12:06:57.220Z,99786.63
2023-05-13T12:09:24.394Z,99792.76
2023-05-13T12:11:52.709Z,99795.95
2023-05-13T12:14:22.446Z,99811.15
2023-05-13T12:16:49.191Z,99823.66
2023-05-13T12:19:16.020Z,99819.42
2023-05-13T12:21:42.998Z,99819.41
2023-05-13T12:24:19.746Z,99814.83
2023-05-13T12:26:46.550Z,99815.73
2023-05-13T12:29:13.394Z,99817.73
2023-05-13T12:31:44.057Z,99814.80
2023-05-13T12:34:10.892Z,99811.00
2023-05-13T12:36:38.232Z,99808.99
2023-05-13T12:39:09.436Z,99804.52
2023-05-13T12:41:37.557Z,99800.33
2023-05-13T12:44:07.926Z,99802.04
2023-05-13T12:46:35.386Z,99798.81
2023-05-13T12:49:03.838Z,99796.80
2023-05-13T12:51:30.827Z,99795.31
2023-05-13T12:53:58.360Z,99789.46
2023-05-13T12:56:25.536Z,99789.88
2023-05-13T12:58:55.399Z,99787.80
2023-05-13T13:01:22.287Z,99786.42
2023-05-13T13:03:49.409Z,99785.67
2023-05-13T13:06:16.321Z,99788.75
2023-05-13T13:08:43.113Z,99790.45
2023-05-13T13:11:10.397Z,99787.18
2023-05-13T13:13:39.206Z,99785.10
2023-05-13T13:16:07.390Z,99786.96
2023-05-13T13:18:34.163Z,99793.45
2023-05-13T13:21:00.909Z,99791.73
2023-05-13T13:23:27.795Z,99795.96
2023-05-13T13:25:54.581Z,99800.13
2023-05-13T13:28:21.300Z,99809.64
2023-05-13T13:30:48.068Z,99810.94
2023-05-13T13:33:15.300Z,99812.02
2023-05-13T13:35:45.698Z,99815.98
2023-05-13T13:38:12.846Z,99812.55
2023-05-13T13:40:39.708Z,99810.77
2023-05-13T13:43:06.700Z,99810.88
2023-05-13T13:45:33.938Z,99806.27
2023-05-13T13:48:00.833Z,99804.35
2023-05-13T13:50:27.822Z,99801.15
2023-05-13T13:52:54.714Z,99798.13
2023-05-13T13:55:21.860Z,99793.56
2023-05-13T13:57:48.803Z,99791.27
2023-05-13T14:00:16.055Z,99788.73
2023-05-13T14:02:43.502Z,99785.38
2023-05-13T14:05:11.379Z,99786.38
2023-05-13T14:07:38.431Z,99786.29
2023-05-13T14:10:05.964Z,99785.69
2023-05-13T14:12:32.760Z,99788.45
2023-05-13T14:14:59.978Z,99785.35
2023-05-13T14:17:26.929Z,99784.08
2023-05-13T14:19:55.602Z,99781.05
2023-05-13T14:22:23.821Z,99779.15
2023-05-13T14:24:52.031Z,99784.16
2023-05-13T14:27:19.213Z,99779.02
2023-05-13T14:29:47.296Z,99775.80
2023-05-13T14:32:14.211Z,99777.65
2023-05-13T14:34:41.052Z,99776.86
2023-05-13T14:37:07.802Z,99776.10
2023-05-13T14:39:34.613Z,99774.41
2023-05-13T14:42:01.600Z,99771.11
2023-05-13T14:44:28.474Z,99767.27
2023-05-13T14:46:55.249Z,99763.58
2023-05-13T14:49:22.062Z,99763.77
2023-05-13T14:51:48.888Z,99766.36
2023-05-13T14:54:17.652Z,99780.63
2023-05-13T14:56:44.873Z,99791.10
2023-05-13T14:59:11.662Z,99794.55
2023-05-13T15:01:38.701Z,99794.86
2023-05-13T15:04:05.983Z,99790.20
2023-05-13T15:06:33.252Z,99804.19
2023-05-13T15:09:00.108Z,99796.91
2023-05-13T15:11:28.133Z,99801.48
2023-05-13T15:13:55.046Z,99800.55
2023-05-13T15:16:22.113Z,99803.05
2023-05-13T15:18:50.270Z,99804.95
2023-05-13T15:21:17.594Z,99808.17
2023-05-13T15:23:44.414Z,99803.41
2023-05-13T15:26:11.193Z,99803.16
2023-05-13T15:28:38.011Z,99807.63
2023-05-13T15:31:05.476Z,99807.52
2023-05-13T15:33:32.646Z,99802.47
2023-05-13T15:35:59.837Z,99803.13
2023-05-13T15:38:27.066Z,99801.11
2023-05-13T15:40:54.294Z,99796.30
2023-05-13T15:43:21.225Z,99795.83
2023-05-13T15:45:48.264Z,99793.59
2023-05-13T15:48:19.147Z,99792.54
2023-05-13T15:51:13.094Z,99790.41
2023-05-13T15:53:39.900Z,99789.88
2023-05-13T15:56:06.853Z,99795.28
2023-05-13T15:58:33.766Z,99790.45
2023-05-13T16:01:00.539Z,99789.02
2023-05-13T16:03:27.313Z,99787.80
2023-05-13T16:05:55.164Z,99787.40
2023-05-13T16:08:21.863Z,99784.20
2023-05-13T16:10:49.183Z,99783.02
2023-05-13T16:13:15.905Z,99783.75
2023-05-13T16:15:42.645Z,99778.35
2023-05-13T16:18:09.412Z,99779.14
2023-05-13T16:20:36.146Z,99780.52
2023-05-13T16:23:02.826Z,99778.43
2023-05-13T16:25:29.551Z,99775.64
2023-05-13T16:27:56.750Z,99774.89
2023-05-13T16:30:23.859Z,99773.09
2023-05-13T16:32:53.501Z,99772.56
2023-05-13T16:35:21.074Z,99771.32
2023-05-13T16:37:48.295Z,99770.14
2023-05-13T16:40:15.115Z,99769.09
2023-05-13T16:42:41.844Z,99768.98
2023-05-13T16:45:08.925Z,99770.63
2023-05-13T16:47:35.747Z,99770.98
2023-05-13T16:50:03.562Z,99769.07
2023-05-13T16:52:34.105Z,99773.23
2023-05-13T16:55:00.868Z,99773.86
2023-05-13T16:57:27.612Z,99778.47
2023-05-13T16:59:54.320Z,99778.16
2023-05-13T17:02:21.321Z,99779.46
2023-05-13T17:04:48.407Z,99779.11
2023-05-13T17:07:15.182Z,99783.28
2023-05-13T17:09:41.902Z,99783.86
2023-05-13T17:12:08.696Z,99788.70
2023-05-13T17:14:35.406Z,99784.27
2023-05-13T17:17:03.214Z,99784.55
2023-05-13T17:19:30.082Z,99781.48
2023-05-13T17:21:57.118Z,99783.77
2023-05-13T17:24:23.885Z,99782.84
2023-05-13T17:26:50.660Z,99786.95
2023-05-13T17:29:17.405Z,99790.09
2023-05-13T17:31:44.312Z,99791.12
2023-05-13T17:34:11.170Z,99791.75
2023-05-13T17:36:37.951Z,99791.45
2023-05-13T17:39:04.636Z,99790.27
2023-05-13T17:41:31.408Z,99789.48
2023-05-13T17:43:58.106Z,99793.84
2023-05-13T17:46:24.781Z,99797.88
2023-05-13T17:48:51.752Z,99798.44
2023-05-13T17:51:18.535Z,99798.79
2023-05-13T17:53:46.744Z,99798.44
2023-05-13T17:56:13.474Z,99800.15
2023-05-13T17:58:40.313Z,99801.17
2023-05-13T18:01:07.051Z,99803.30
2023-05-13T18:03:34.927Z,99808.16
2023-05-13T18:06:01.745Z,99808.66
2023-05-13T18:08:28.468Z,99814.42
2023-05-13T18:10:55.314Z,99816.70
2023-05-13T18:13:22.048Z,99823.32
2023-05-13T18:15:48.742Z,99826.49
2023-05-13T18:18:16.285Z,99824.77
2023-05-13T18:20:43.032Z,99830.67
2023-05-13T18:23:09.821Z,99827.81
2023-05-13T18:25:48.556Z,99835.69
2023-05-13T18:28:21.577Z,99837.33
2023-05-13T18:30:48.320Z,99836.88
2023-05-13T18:33:15.171Z,99840.81
2023-05-13T18:35:41.900Z,99841.91
2023-05-13T18:38:08.608Z,99845.34
2023-05-13T18:40:35.381Z,99843.73
2023-05-13T18:43:02.283Z,99844.64
2023-05-13T18:45:29.109Z,99843.68
2023-05-13T18:47:56.146Z,99844.98
2023-05-13T18:50:23.085Z,99846.12
2023-05-13T18:52:49.981Z,99842.18
2023-05-13T18:55:16.738Z,99843.01
2023-05-13T18:57:43.443Z,99842.90
2023-05-13T19:00:10.802Z,99842.88
2023-05-13T19:02:37.859Z,99845.31
2023-05-13T19:05:05.279Z,99843.89
2023-05-13T19:07:32.066Z,99843.91
2023-05-13T19:09:58.833Z,99845.27
2023-05-13T19:12:26.346Z,99849.23
2023-05-13T19:14:53.165Z,99845.00
2023-05-13T19:17:20.178Z,99849.88
2023-05-13T19:19:47.187Z,99848.13
2023-05-13T19:22:14.178Z,99848.48
2023-05-13T19:24:40.958Z,99848.63
2023-05-13T19:27:07.930Z,99847.63
2023-05-13T19:29:35.380Z,99848.34
2023-05-13T19:32:02.097Z,99843.63
2023-05-13T19:34:28.757Z,99842.52
2023-05-13T19:36:55.822Z,99839.14
2023-05-13T19:39:22.622Z,99835.45
2023-05-13T19:41:49.387Z,99840.79
2023-05-13T19:44:16.374Z,99840.09
2023-05-13T19:46:43.176Z,99847.20
2023-05-13T19:49:09.958Z,99856.53
2023-05-13T19:51:36.712Z,99854.70
2023-05-13T19:54:03.518Z,99853.23
2023-05-13T19:56:30.520Z,99850.23
2023-05-13T19:58:57.229Z,99851.02
2023-05-13T20:01:24.851Z,99850.02
2023-05-13T20:03:51.705Z,99846.83
2023-05-13T20:06:18.464Z,99844.16
2023-05-13T20:08:45.221Z,99845.30
2023-05-13T20:11:12.010Z,99844.58
2023-05-13T20:13:38.861Z,99842.69
2023-05-13T20:16:05.634Z,99844.00
2023-05-13T20:18:32.564Z,99842.70
2023-05-13T20:20:59.594Z,99842.74
2023-05-13T20:23:26.308Z,99847.66
2023-05-13T20:25:54.285Z,99846.65
2023-05-13T20:28:21.324Z,99842.02
2023-05-13T20:30:52.236Z,99840.88
2023-05-13T20:33:19.229Z,99838.64
2023-05-13T20:35:46.406Z,99840.02
2023-05-13T20:38:13.253Z,99835.98
2023-05-13T20:40:39.959Z,99835.27
2023-05-13T20:43:07.769Z,99833.98
2023-05-13T20:45:36.619Z,99830.67
2023-05-13T20:48:03.509Z,99835.05
2023-05-13T20:50:30.229Z,99836.91
2023-05-13T20:52:57.008Z,99836.09
2023-05-13T20:55:23.742Z,99834.43
2023-05-13T20:57:50.502Z,99835.00
2023-05-13T21:00:17.497Z,99832.96
2023-05-13T21:02:45.118Z,99832.63
2023-05-13T21:05:12.280Z,99833.09
2023-05-13T21:07:38.983Z,99831.94
2023-05-13T21:10:07.005Z,99834.39
2023-05-13T21:12:33.785Z,99834.73
2023-05-13T21:15:00.542Z,99834.77
2023-05-13T21:17:27.294Z,99837.83
2023-05-13T21:19:54.037Z,99836.48
2023-05-13T21:22:20.739Z,99833.06
2023-05-13T21:24:47.463Z,99843.31
2023-05-13T21:27:14.163Z,99840.48
2023-05-13T21:29:41.016Z,99846.17
2023-05-13T21:32:07.827Z,99844.58
2023-05-13T21:34:34.590Z,99847.19
2023-05-13T21:37:01.382Z,99844.87
2023-05-13T21:39:28.082Z,99850.09
2023-05-13T21:41:55.013Z,99849.55
2023-05-13T21:44:21.897Z,99850.34
2023-05-13T21:46:48.767Z,99855.23
2023-05-13T21:49:15.668Z,99852.75
2023-05-13T21:51:42.452Z,99850.02
2023-05-13T21:54:09.137Z,99852.30
2023-05-13T21:56:35.921Z,99852.73
2023-05-13T21:59:02.616Z,99852.11
2023-05-13T22:01:29.292Z,99854.92
2023-05-13T22:03:56.066Z,99854.45
2023-05-13T22:06:22.842Z,99851.67
2023-05-13T22:08:49.548Z,99851.54
2023-05-13T22:11:16.493Z,99853.34
2023-05-13T22:13:43.428Z,99847.36
2023-05-13T22:16:10.316Z,99849.52
2023-05-13T22:18:37.381Z,99849.73
2023-05-13T22:21:05.689Z,99851.62
2023-05-13T22:23:32.442Z,99852.05
2023-05-13T22:25:59.231Z,99852.62
2023-05-13T22:28:26.066Z,99855.48
2023-05-13T22:30:52.827Z,99854.23
2023-05-13T22:33:19.584Z,99849.51
2023-05-13T22:35:46.321Z,99851.02
2023-05-13T22:38:12.970Z,99853.72
2023-05-13T22:40:39.741Z,99853.96
2023-05-13T22:43:06.461Z,99853.45
2023-05-13T22:45:33.212Z,99852.33
2023-05-13T22:48:00.021Z,99852.57
2023-05-13T22:50:26.849Z,99852.67
2023-05-13T22:52:53.563Z,99854.55
2023-05-13T22:55:20.971Z,99856.00
2023-05-13T22:57:47.771Z,99853.94
2023-05-13T23:00:14.911Z,99851.54
2023-05-13T23:02:41.723Z,99852.27
2023-05-13T23:05:08.486Z,99853.18
2023-05-13T23:07:35.195Z,99854.58
2023-05-13T23:10:01.934Z,99854.58
2023-05-13T23:12:28.649Z,99858.05
2023-05-13T23:14:55.452Z,99858.73
2023-05-13T23:17:22.253Z,99859.67
2023-05-13T23:19:48.963Z,99861.23
2023-05-13T23:22:15.794Z,99858.73
2023-05-13T23:24:42.523Z,99856.94
2023-05-13T23:27:09.220Z,99860.66
2023-05-13T23:29:36.153Z,99860.01
2023-05-13T23:32:05.172Z,99856.03
2023-05-13T23:34:33.393Z,99852.80
2023-05-13T23:37:00.181Z,99854.98
2023-05-13T23:39:27.191Z,99855.75
2023-05-13T23:41:53.901Z,99856.60
2023-05-13T23:44:20.623Z,99856.93
2023-05-13T23:46:47.364Z,99856.65
2023-05-13T23:49:14.079Z,99860.37
2023-05-13T23:51:40.836Z,99858.71
2023-05-13T23:54:08.323Z,99858.70
2023-05-13T23:56:35.119Z,99861.23
2023-05-13T23:59:01.841Z,99862.06
